createdAt,value
2017-02-18T00:00:18.245Z,99.99
2017-02-18T00:01:18.965Z,99.99
2017-02-18T00:02:19.691Z,99.99
2017-02-18T00:03:20.363Z,99.99
2017-02-18T00:04:21.053Z,99.99
2017-02-18T00:05:21.747Z,99.99
2017-02-18T00:06:22.450Z,99.99
2017-02-18T00:07:23.147Z,99.99
2017-02-18T00:08:23.822Z,99.99
2017-02-18T00:09:24.529Z,99.99
2017-02-18T00:10:25.239Z,99.99
2017-02-18T00:11:25.954Z,99.99
2017-02-18T00:12:26.688Z,99.99
2017-02-18T00:13:27.392Z,99.99
2017-02-18T00:14:28.077Z,99.99
2017-02-18T00:15:28.784Z,99.99
2017-02-18T00:16:29.492Z,99.99
2017-02-18T00:17:30.194Z,99.99
2017-02-18T00:18:30.878Z,99.99
2017-02-18T00:19:31.608Z,99.99
2017-02-18T00:20:32.337Z,99.99
2017-02-18T00:21:33.016Z,99.99
2017-02-18T00:22:33.749Z,99.99
2017-02-18T00:23:34.427Z,99.99
2017-02-18T00:24:35.140Z,99.99
2017-02-18T00:25:35.820Z,99.99
2017-02-18T00:26:36.601Z,99.99
2017-02-18T00:27:37.249Z,99.99
2017-02-18T00:28:37.979Z,99.99
2017-02-18T00:29:38.681Z,99.99
2017-02-18T00:30:39.417Z,99.99
2017-02-18T00:31:40.066Z,99.99
2017-02-18T00:32:40.781Z,99.99
2017-02-18T00:33:41.499Z,99.99
2017-02-18T00:34:42.227Z,99.99
2017-02-18T00:35:42.933Z,99.99
2017-02-18T00:36:43.622Z,99.99
2017-02-18T00:37:44.411Z,99.99
2017-02-18T00:38:45.107Z,99.99
2017-02-18T00:39:45.816Z,99.99
2017-02-18T00:40:46.519Z,99.99
2017-02-18T00:41:47.235Z,99.99
2017-02-18T00:42:47.942Z,99.99
2017-02-18T00:43:48.662Z,99.99
2017-02-18T00:44:49.351Z,99.99
2017-02-18T00:45:50.050Z,99.99
2017-02-18T00:46:50.778Z,99.99
2017-02-18T00:47:51.471Z,99.99
2017-02-18T00:48:52.175Z,99.99
2017-02-18T00:49:52.886Z,99.99
2017-02-18T00:50:53.615Z,99.99
2017-02-18T00:51:54.332Z,99.99
2017-02-18T00:52:55.081Z,99.99
2017-02-18T00:53:55.809Z,99.99
2017-02-18T00:54:56.506Z,99.99
2017-02-18T00:55:57.193Z,99.99
2017-02-18T00:56:57.872Z,99.99
2017-02-18T00:57:58.593Z,99.99
2017-02-18T00:58:59.301Z,99.99
2017-02-18T01:00:00.004Z,99.99
2017-02-18T01:01:00.715Z,99.99
2017-02-18T01:02:01.394Z,99.99
2017-02-18T01:03:02.085Z,99.99
2017-02-18T01:04:02.815Z,99.99
2017-02-18T01:05:03.457Z,99.99
2017-02-18T01:06:04.141Z,99.99
2017-02-18T01:07:04.834Z,99.99
2017-02-18T01:08:05.524Z,99.99
2017-02-18T01:09:06.215Z,99.99
2017-02-18T01:10:06.904Z,99.99
2017-02-18T01:11:07.591Z,99.99
2017-02-18T01:12:08.292Z,99.99
2017-02-18T01:13:09.009Z,99.99
2017-02-18T01:14:09.727Z,99.99
2017-02-18T01:15:10.413Z,99.99
2017-02-18T01:16:11.109Z,99.99
2017-02-18T01:17:11.811Z,99.99
2017-02-18T01:18:12.516Z,99.99
2017-02-18T01:19:13.182Z,99.99
2017-02-18T01:20:13.892Z,99.99
2017-02-18T01:21:14.596Z,99.99
2017-02-18T01:22:15.285Z,99.99
2017-02-18T01:23:16.000Z,99.99
2017-02-18T01:24:16.699Z,99.99
2017-02-18T01:25:17.381Z,99.99
2017-02-18T01:26:18.075Z,99.99
2017-02-18T01:27:18.812Z,99.99
2017-02-18T01:28:19.500Z,99.99
2017-02-18T01:29:20.231Z,99.99
2017-02-18T01:30:20.944Z,99.99
2017-02-18T01:31:21.648Z,99.99
2017-02-18T01:32:22.341Z,99.99
2017-02-18T01:33:23.027Z,99.99
2017-02-18T01:34:23.756Z,99.99
2017-02-18T01:35:24.416Z,99.99
2017-02-18T01:36:25.113Z,99.99
2017-02-18T01:37:25.789Z,99.99
2017-02-18T01:38:26.480Z,99.99
2017-02-18T01:39:27.192Z,99.99
2017-02-18T01:40:27.884Z,99.99
2017-02-18T01:41:28.557Z,99.99
2017-02-18T01:42:29.232Z,99.99
2017-02-18T01:43:29.932Z,99.99
2017-02-18T01:44:30.634Z,99.99
2017-02-18T01:45:31.321Z,99.99
2017-02-18T01:46:32.026Z,99.99
2017-02-18T01:47:32.706Z,99.99
2017-02-18T01:48:33.418Z,99.99
2017-02-18T01:49:34.089Z,99.99
2017-02-18T01:50:34.785Z,99.99
2017-02-18T01:51:35.458Z,99.99
2017-02-18T01:52:36.157Z,99.99
2017-02-18T01:53:36.866Z,99.99
2017-02-18T01:54:37.560Z,99.99
2017-02-18T01:55:38.257Z,99.99
2017-02-18T01:56:38.946Z,99.99
2017-02-18T01:57:39.649Z,99.99
2017-02-18T01:58:40.321Z,99.99
2017-02-18T01:59:41.015Z,99.99
2017-02-18T02:00:41.709Z,99.99
2017-02-18T02:01:42.400Z,99.99
2017-02-18T02:02:43.110Z,99.99
2017-02-18T02:03:43.785Z,99.99
2017-02-18T02:04:44.469Z,99.99
2017-02-18T02:05:45.155Z,99.99
2017-02-18T02:06:45.852Z,99.99
2017-02-18T02:07:46.520Z,99.99
2017-02-18T02:08:47.215Z,99.99
2017-02-18T02:09:47.955Z,99.99
2017-02-18T02:10:48.651Z,99.99
2017-02-18T02:11:49.343Z,99.99
2017-02-18T02:12:50.045Z,99.99
2017-02-18T02:13:50.730Z,99.99
2017-02-18T02:14:51.414Z,99.99
2017-02-18T02:15:52.105Z,99.99
2017-02-18T02:16:52.775Z,99.99
2017-02-18T02:17:53.453Z,99.99
2017-02-18T02:18:54.128Z,99.99
2017-02-18T02:19:54.800Z,99.99
2017-02-18T02:20:55.504Z,99.99
2017-02-18T02:21:56.168Z,99.99
2017-02-18T02:22:56.862Z,99.99
2017-02-18T02:23:57.538Z,99.99
2017-02-18T02:24:58.209Z,99.99
2017-02-18T02:25:58.875Z,99.99
2017-02-18T02:26:59.546Z,99.99
2017-02-18T02:28:00.216Z,99.99
2017-02-18T02:29:00.885Z,99.99
2017-02-18T02:30:01.556Z,99.99
2017-02-18T02:31:02.239Z,99.99
2017-02-18T02:32:02.908Z,99.99
2017-02-18T02:33:03.584Z,99.99
2017-02-18T02:34:04.255Z,99.99
2017-02-18T02:35:04.930Z,99.99
2017-02-18T02:36:05.630Z,99.99
2017-02-18T02:37:06.319Z,99.99
2017-02-18T02:38:06.983Z,99.99
2017-02-18T02:39:07.650Z,99.99
2017-02-18T02:40:08.338Z,99.99
2017-02-18T02:41:09.009Z,99.99
2017-02-18T02:42:09.712Z,99.99
2017-02-18T02:43:10.403Z,99.99
2017-02-18T02:44:11.091Z,99.99
2017-02-18T02:45:11.767Z,99.99
2017-02-18T02:46:12.479Z,99.99
2017-02-18T02:47:13.152Z,99.99
2017-02-18T02:48:13.845Z,99.99
2017-02-18T02:49:14.526Z,99.99
2017-02-18T02:50:15.215Z,99.99
2017-02-18T02:51:15.880Z,99.99
2017-02-18T02:52:16.583Z,99.99
2017-02-18T02:53:17.273Z,99.99
2017-02-18T02:54:17.948Z,99.99
2017-02-18T02:55:18.617Z,99.99
2017-02-18T02:56:19.324Z,99.99
2017-02-18T02:57:20.015Z,99.99
2017-02-18T02:58:20.713Z,99.99
2017-02-18T02:59:21.404Z,99.99
2017-02-18T03:00:22.122Z,99.99
2017-02-18T03:01:22.859Z,99.99
2017-02-18T03:02:23.522Z,99.99
2017-02-18T03:03:24.202Z,99.99
2017-02-18T03:04:24.870Z,99.99
2017-02-18T03:05:25.543Z,99.99
2017-02-18T03:06:26.243Z,99.99
2017-02-18T03:07:26.947Z,99.99
2017-02-18T03:08:27.662Z,99.99
2017-02-18T03:09:28.341Z,99.99
2017-02-18T03:10:29.007Z,99.99
2017-02-18T03:11:29.670Z,99.99
2017-02-18T03:12:30.350Z,99.99
2017-02-18T03:13:31.032Z,99.99
2017-02-18T03:14:31.712Z,99.99
2017-02-18T03:15:32.430Z,99.99
2017-02-18T03:16:33.125Z,99.99
2017-02-18T03:17:33.806Z,99.99
2017-02-18T03:18:34.490Z,99.99
2017-02-18T03:19:35.154Z,99.99
2017-02-18T03:20:35.835Z,99.99
2017-02-18T03:21:36.551Z,99.99
2017-02-18T03:22:37.265Z,99.99
2017-02-18T03:23:37.941Z,99.99
2017-02-18T03:24:38.637Z,99.99
2017-02-18T03:25:39.358Z,99.99
2017-02-18T03:26:40.015Z,99.99
2017-02-18T03:27:40.689Z,99.99
2017-02-18T03:28:41.374Z,99.99
2017-02-18T03:29:42.044Z,99.99
2017-02-18T03:30:42.737Z,99.99
2017-02-18T03:31:43.425Z,99.99
2017-02-18T03:32:44.116Z,99.99
2017-02-18T03:33:44.809Z,99.99
2017-02-18T03:34:45.497Z,99.99
2017-02-18T03:35:46.190Z,99.99
2017-02-18T03:36:46.891Z,99.99
2017-02-18T03:37:47.575Z,99.99
2017-02-18T03:38:48.291Z,99.99
2017-02-18T03:39:48.962Z,99.99
2017-02-18T03:40:49.666Z,99.99
2017-02-18T03:41:50.391Z,99.99
2017-02-18T03:42:51.091Z,99.99
2017-02-18T03:43:51.798Z,99.99
2017-02-18T03:44:52.488Z,99.99
2017-02-18T03:45:53.183Z,99.99
2017-02-18T03:46:53.905Z,99.99
2017-02-18T03:47:54.584Z,99.99
2017-02-18T03:48:55.272Z,99.99
2017-02-18T03:49:55.947Z,99.99
2017-02-18T03:50:56.651Z,99.99
2017-02-18T03:51:57.342Z,99.99
2017-02-18T03:52:58.051Z,99.99
2017-02-18T03:53:58.736Z,99.99
2017-02-18T03:54:59.420Z,99.99
2017-02-18T03:56:00.113Z,99.99
2017-02-18T03:57:00.805Z,99.99
2017-02-18T03:58:01.505Z,99.99
2017-02-18T03:59:02.186Z,99.99
2017-02-18T04:00:02.872Z,99.99
2017-02-18T04:01:03.576Z,99.99
2017-02-18T04:02:04.272Z,99.99
2017-02-18T04:03:04.959Z,99.99
2017-02-18T04:04:05.649Z,99.99
2017-02-18T04:05:06.355Z,99.99
2017-02-18T04:06:07.052Z,99.99
2017-02-18T04:07:07.733Z,99.99
2017-02-18T04:08:08.434Z,99.99
2017-02-18T04:09:09.083Z,99.99
2017-02-18T04:10:09.768Z,99.99
2017-02-18T04:11:10.466Z,99.99
2017-02-18T04:12:11.141Z,99.99
2017-02-18T04:13:11.843Z,99.99
2017-02-18T04:14:12.539Z,99.99
2017-02-18T04:15:13.217Z,99.99
2017-02-18T04:16:13.942Z,99.99
2017-02-18T04:17:14.621Z,99.99
2017-02-18T04:18:15.323Z,99.99
2017-02-18T04:19:16.034Z,99.99
2017-02-18T04:20:16.719Z,99.99
2017-02-18T04:21:17.409Z,99.99
2017-02-18T04:22:18.096Z,99.99
2017-02-18T04:23:18.762Z,99.99
2017-02-18T04:24:19.419Z,99.99
2017-02-18T04:25:20.093Z,99.99
2017-02-18T04:26:20.784Z,99.99
2017-02-18T04:27:21.455Z,99.99
2017-02-18T04:28:22.131Z,99.99
2017-02-18T04:29:22.807Z,99.99
2017-02-18T04:30:23.475Z,99.99
2017-02-18T04:31:24.146Z,99.99
2017-02-18T04:32:24.821Z,99.99
2017-02-18T04:33:25.485Z,99.99
2017-02-18T04:34:26.155Z,99.99
2017-02-18T04:35:26.822Z,99.99
2017-02-18T04:36:27.482Z,99.99
2017-02-18T04:37:28.164Z,99.99
2017-02-18T04:38:28.834Z,99.99
2017-02-18T04:39:29.504Z,99.99
2017-02-18T04:40:30.177Z,99.99
2017-02-18T04:41:30.855Z,99.99
2017-02-18T04:42:31.522Z,99.99
2017-02-18T04:43:32.242Z,99.99
2017-02-18T04:44:32.930Z,99.99
2017-02-18T04:45:33.612Z,99.99
2017-02-18T04:46:34.298Z,99.99
2017-02-18T04:47:34.998Z,99.99
2017-02-18T04:48:35.683Z,99.99
2017-02-18T04:49:36.385Z,99.99
2017-02-18T04:50:37.050Z,99.99
2017-02-18T04:51:37.780Z,99.99
2017-02-18T04:52:38.434Z,99.99
2017-02-18T04:53:39.125Z,99.99
2017-02-18T04:54:39.791Z,99.99
2017-02-18T04:55:40.463Z,99.99
2017-02-18T04:56:41.136Z,99.99
2017-02-18T04:57:41.819Z,99.99
2017-02-18T04:58:42.492Z,99.99
2017-02-18T04:59:43.165Z,99.99
2017-02-18T05:00:43.835Z,99.99
2017-02-18T05:01:44.512Z,99.99
2017-02-18T05:02:45.185Z,99.99
2017-02-18T05:03:45.913Z,99.99
2017-02-18T05:04:46.595Z,99.99
2017-02-18T05:05:47.295Z,99.99
2017-02-18T05:06:47.980Z,99.99
2017-02-18T05:07:48.664Z,99.99
2017-02-18T05:08:49.374Z,99.99
2017-02-18T05:09:50.051Z,99.99
2017-02-18T05:10:50.716Z,99.99
2017-02-18T05:11:51.396Z,99.99
2017-02-18T05:12:52.091Z,99.99
2017-02-18T05:13:52.763Z,99.99
2017-02-18T05:14:53.441Z,99.99
2017-02-18T05:15:54.104Z,99.99
2017-02-18T05:16:54.775Z,99.99
2017-02-18T05:17:55.459Z,99.99
2017-02-18T05:18:56.157Z,99.99
2017-02-18T05:19:56.835Z,99.99
2017-02-18T05:20:57.569Z,99.99
2017-02-18T05:21:58.243Z,99.99
2017-02-18T05:22:58.910Z,99.99
2017-02-18T05:23:59.601Z,99.99
2017-02-18T05:25:00.268Z,99.99
2017-02-18T05:26:00.955Z,99.99
2017-02-18T05:27:01.617Z,99.99
2017-02-18T05:28:02.302Z,99.99
2017-02-18T05:29:02.979Z,99.99
2017-02-18T05:30:03.663Z,99.99
2017-02-18T05:31:04.407Z,99.99
2017-02-18T05:32:05.092Z,99.99
2017-02-18T05:33:05.795Z,99.99
2017-02-18T05:34:06.469Z,99.99
2017-02-18T05:35:07.141Z,99.99
2017-02-18T05:36:07.815Z,99.99
2017-02-18T05:37:08.495Z,99.99
2017-02-18T05:38:09.165Z,99.99
2017-02-18T05:39:09.842Z,99.99
2017-02-18T05:40:10.579Z,99.99
2017-02-18T05:41:11.283Z,99.99
2017-02-18T05:42:11.952Z,99.99
2017-02-18T05:43:12.645Z,99.99
2017-02-18T05:44:13.317Z,99.99
2017-02-18T05:45:14.003Z,99.99
2017-02-18T05:46:14.686Z,99.99
2017-02-18T05:47:15.358Z,99.99
2017-02-18T05:48:16.049Z,99.99
2017-02-18T05:49:16.730Z,99.99
2017-02-18T05:50:17.416Z,99.99
2017-02-18T05:51:18.087Z,99.99
2017-02-18T05:52:18.762Z,99.99
2017-02-18T05:53:19.437Z,99.99
2017-02-18T05:54:20.109Z,99.99
2017-02-18T05:55:20.778Z,99.99
2017-02-18T05:56:21.471Z,99.99
2017-02-18T05:57:22.164Z,99.99
2017-02-18T05:58:22.843Z,99.99
2017-02-18T05:59:23.528Z,99.99
2017-02-18T06:00:24.253Z,99.99
2017-02-18T06:01:24.914Z,99.99
2017-02-18T06:02:25.589Z,99.99
2017-02-18T06:03:26.277Z,99.99
2017-02-18T06:04:26.932Z,99.99
2017-02-18T06:05:27.614Z,99.99
2017-02-18T06:06:28.280Z,99.99
2017-02-18T06:07:28.958Z,99.99
2017-02-18T06:08:29.623Z,99.99
2017-02-18T06:09:30.292Z,99.99
2017-02-18T06:10:30.964Z,99.99
2017-02-18T06:11:31.630Z,99.99
2017-02-18T06:12:32.334Z,99.99
2017-02-18T06:13:33.037Z,99.99
2017-02-18T06:14:33.738Z,99.99
2017-02-18T06:15:34.410Z,99.99
2017-02-18T06:16:35.103Z,99.99
2017-02-18T06:17:35.773Z,99.99
2017-02-18T06:18:36.449Z,99.99
2017-02-18T06:19:37.128Z,99.99
2017-02-18T06:20:37.798Z,99.99
2017-02-18T06:21:38.457Z,99.99
2017-02-18T06:22:39.127Z,99.99
2017-02-18T06:23:39.814Z,99.99
2017-02-18T06:24:40.484Z,99.99
2017-02-18T06:25:41.148Z,99.99
2017-02-18T06:26:41.833Z,99.99
2017-02-18T06:27:42.512Z,99.99
2017-02-18T06:28:43.218Z,99.99
2017-02-18T06:29:43.890Z,99.99
2017-02-18T06:30:44.591Z,99.99
2017-02-18T06:31:45.286Z,99.99
2017-02-18T06:32:45.953Z,99.99
2017-02-18T06:33:46.630Z,99.99
2017-02-18T06:34:47.311Z,99.99
2017-02-18T06:35:47.975Z,99.99
2017-02-18T06:36:48.654Z,99.99
2017-02-18T06:37:49.323Z,99.99
2017-02-18T06:38:49.999Z,99.99
2017-02-18T06:39:50.678Z,99.99
2017-02-18T06:40:51.371Z,99.99
2017-02-18T06:41:52.052Z,99.99
2017-02-18T06:42:52.729Z,99.99
2017-02-18T06:43:53.418Z,99.99
2017-02-18T06:44:54.090Z,99.99
2017-02-18T06:45:54.764Z,99.99
2017-02-18T06:46:55.439Z,99.99
2017-02-18T06:47:56.110Z,99.99
2017-02-18T06:48:56.770Z,99.99
2017-02-18T06:49:57.455Z,99.99
2017-02-18T06:50:58.125Z,99.99
2017-02-18T06:51:58.801Z,99.99
2017-02-18T06:52:59.473Z,99.99
2017-02-18T06:54:00.159Z,99.99
2017-02-18T06:55:00.916Z,99.99
2017-02-18T06:56:01.586Z,99.99
2017-02-18T06:57:02.259Z,99.99
2017-02-18T06:58:02.935Z,99.99
2017-02-18T06:59:03.604Z,99.99
2017-02-18T07:00:04.296Z,99.99
2017-02-18T07:01:04.975Z,99.99
2017-02-18T07:02:05.689Z,99.99
2017-02-18T07:03:06.370Z,99.99
2017-02-18T07:04:07.055Z,99.99
2017-02-18T07:05:07.739Z,99.99
2017-02-18T07:06:08.438Z,99.99
2017-02-18T07:07:09.131Z,99.99
2017-02-18T07:08:09.824Z,99.99
2017-02-18T07:09:10.528Z,99.99
2017-02-18T07:10:11.251Z,99.99
2017-02-18T07:11:11.935Z,99.99
2017-02-18T07:12:12.641Z,99.99
2017-02-18T07:13:13.344Z,99.99
2017-02-18T07:14:14.021Z,99.99
2017-02-18T07:15:14.703Z,99.99
2017-02-18T07:16:15.388Z,99.99
2017-02-18T07:17:16.062Z,99.99
2017-02-18T07:18:16.743Z,99.99
2017-02-18T07:19:17.413Z,99.99
2017-02-18T07:20:18.161Z,99.99
2017-02-18T07:21:18.907Z,99.99
2017-02-18T07:22:19.598Z,99.99
2017-02-18T07:23:20.299Z,99.99
2017-02-18T07:24:20.994Z,99.99
2017-02-18T07:25:21.704Z,99.99
2017-02-18T07:26:22.414Z,99.99
2017-02-18T07:27:23.101Z,99.99
2017-02-18T07:28:23.812Z,99.99
2017-02-18T07:29:24.487Z,99.99
2017-02-18T07:30:25.153Z,99.99
2017-02-18T07:31:25.843Z,99.99
2017-02-18T07:32:26.527Z,99.99
2017-02-18T07:33:27.222Z,99.99
2017-02-18T07:34:27.925Z,99.99
2017-02-18T07:35:28.618Z,99.99
2017-02-18T07:36:29.314Z,99.99
2017-02-18T07:37:29.994Z,99.99
2017-02-18T07:38:30.697Z,99.99
2017-02-18T07:39:31.408Z,99.99
2017-02-18T07:40:32.112Z,99.99
2017-02-18T07:41:32.837Z,99.99
2017-02-18T07:42:33.534Z,99.99
2017-02-18T07:43:34.198Z,99.99
2017-02-18T07:44:34.869Z,99.99
2017-02-18T07:45:35.553Z,99.99
2017-02-18T07:46:36.260Z,99.99
2017-02-18T07:47:36.945Z,99.99
2017-02-18T07:48:37.633Z,99.99
2017-02-18T07:49:38.325Z,99.99
2017-02-18T07:50:39.028Z,99.99
2017-02-18T07:51:39.739Z,99.99
2017-02-18T07:52:40.396Z,99.99
2017-02-18T07:53:41.104Z,99.99
2017-02-18T07:54:41.791Z,99.99
2017-02-18T07:55:42.492Z,99.99
2017-02-18T07:56:43.203Z,99.99
2017-02-18T07:57:43.892Z,99.99
2017-02-18T07:58:44.593Z,99.99
2017-02-18T07:59:45.307Z,99.99
2017-02-18T08:00:46.005Z,99.99
2017-02-18T08:01:46.702Z,99.99
2017-02-18T08:02:47.381Z,99.99
2017-02-18T08:03:48.063Z,99.99
2017-02-18T08:04:48.760Z,99.99
2017-02-18T08:05:49.494Z,99.99
2017-02-18T08:06:50.157Z,99.99
2017-02-18T08:07:50.864Z,99.99
2017-02-18T08:08:51.566Z,99.99
2017-02-18T08:09:52.274Z,99.99
2017-02-18T08:10:52.974Z,99.99
2017-02-18T08:11:53.653Z,99.99
2017-02-18T08:12:54.379Z,99.99
2017-02-18T08:13:55.059Z,99.99
2017-02-18T08:14:55.730Z,99.99
2017-02-18T08:15:56.420Z,99.99
2017-02-18T08:16:57.126Z,99.99
2017-02-18T08:17:57.816Z,99.99
2017-02-18T08:18:58.509Z,99.99
2017-02-18T08:19:59.219Z,99.99
2017-02-18T08:20:59.922Z,99.99
2017-02-18T08:22:00.616Z,99.99
2017-02-18T08:23:01.320Z,99.99
2017-02-18T08:24:02.027Z,99.99
2017-02-18T08:25:02.748Z,99.99
2017-02-18T08:26:03.455Z,99.99
2017-02-18T08:27:04.150Z,99.99
2017-02-18T08:28:04.852Z,99.99
2017-02-18T08:29:05.537Z,99.99
2017-02-18T08:30:06.236Z,99.99
2017-02-18T08:31:06.932Z,99.99
2017-02-18T08:32:07.616Z,99.99
2017-02-18T08:33:08.301Z,99.99
2017-02-18T08:34:09.000Z,99.99
2017-02-18T08:35:09.695Z,99.99
2017-02-18T08:36:10.378Z,99.99
2017-02-18T08:37:11.083Z,99.99
2017-02-18T08:38:11.781Z,99.99
2017-02-18T08:39:12.484Z,99.99
2017-02-18T08:40:13.160Z,99.99
2017-02-18T08:41:13.858Z,99.99
2017-02-18T08:42:14.550Z,99.99
2017-02-18T08:43:15.263Z,99.99
2017-02-18T08:44:15.950Z,99.99
2017-02-18T08:45:16.645Z,99.99
2017-02-18T08:46:17.324Z,99.99
2017-02-18T08:47:18.040Z,99.99
2017-02-18T08:48:18.714Z,99.99
2017-02-18T08:49:19.416Z,99.99
2017-02-18T08:50:20.111Z,99.99
2017-02-18T08:51:20.802Z,99.99
2017-02-18T08:52:21.524Z,99.99
2017-02-18T08:53:22.226Z,99.99
2017-02-18T08:54:22.914Z,99.99
2017-02-18T08:55:23.622Z,99.99
2017-02-18T08:56:24.313Z,99.99
2017-02-18T08:57:24.994Z,99.99
2017-02-18T08:58:25.681Z,99.99
2017-02-18T08:59:26.379Z,99.99
2017-02-18T09:00:27.073Z,99.99
2017-02-18T09:01:27.792Z,99.99
2017-02-18T09:02:28.484Z,99.99
2017-02-18T09:03:29.170Z,99.99
2017-02-18T09:04:29.836Z,99.99
2017-02-18T09:05:30.555Z,99.99
2017-02-18T09:06:31.253Z,99.99
2017-02-18T09:07:31.952Z,99.99
2017-02-18T09:08:32.660Z,99.99
2017-02-18T09:09:33.352Z,99.99
2017-02-18T09:10:34.068Z,99.99
2017-02-18T09:11:34.767Z,99.99
2017-02-18T09:12:35.463Z,99.99
2017-02-18T09:13:36.165Z,99.99
2017-02-18T09:14:36.884Z,99.99
2017-02-18T09:15:37.580Z,99.99
2017-02-18T09:16:38.269Z,99.99
2017-02-18T09:17:38.966Z,99.99
2017-02-18T09:18:39.685Z,99.99
2017-02-18T09:19:40.420Z,99.99
2017-02-18T09:20:41.125Z,99.99
2017-02-18T09:21:41.824Z,99.99
2017-02-18T09:22:42.526Z,99.99
2017-02-18T09:23:43.249Z,99.99
2017-02-18T09:24:43.958Z,99.99
2017-02-18T09:25:44.668Z,99.99
2017-02-18T09:26:45.377Z,99.99
2017-02-18T09:27:46.083Z,99.99
2017-02-18T09:28:46.784Z,99.99
2017-02-18T09:29:47.495Z,99.99
2017-02-18T09:30:48.190Z,99.99
2017-02-18T09:31:48.910Z,99.99
2017-02-18T09:32:49.616Z,99.99
2017-02-18T09:33:50.359Z,99.99
2017-02-18T09:34:51.039Z,99.99
2017-02-18T09:35:51.749Z,99.99
2017-02-18T09:36:52.450Z,99.99
2017-02-18T09:37:53.142Z,99.99
2017-02-18T09:38:53.856Z,99.99
2017-02-18T09:39:54.544Z,99.99
2017-02-18T09:40:55.230Z,99.99
2017-02-18T09:41:55.959Z,99.99
2017-02-18T09:42:56.666Z,99.99
2017-02-18T09:43:57.390Z,99.99
2017-02-18T09:44:58.095Z,99.99
2017-02-18T09:45:58.797Z,99.99
2017-02-18T09:46:59.488Z,99.99
2017-02-18T09:48:00.236Z,99.99
2017-02-18T09:49:00.965Z,99.99
2017-02-18T09:50:01.666Z,99.99
2017-02-18T09:51:02.371Z,99.99
2017-02-18T09:52:03.106Z,99.99
2017-02-18T09:53:03.848Z,99.99
2017-02-18T09:54:04.537Z,99.99
2017-02-18T09:55:05.308Z,99.99
2017-02-18T09:56:06.035Z,99.99
2017-02-18T09:57:06.764Z,99.99
2017-02-18T09:58:07.466Z,99.99
2017-02-18T09:59:08.222Z,99.99
2017-02-18T10:00:08.923Z,99.99
2017-02-18T10:01:09.660Z,99.99
2017-02-18T10:02:10.342Z,99.99
2017-02-18T10:03:11.073Z,99.99
2017-02-18T10:04:11.753Z,99.99
2017-02-18T10:05:12.478Z,99.99
2017-02-18T10:06:13.205Z,99.99
2017-02-18T10:07:13.923Z,99.99
2017-02-18T10:08:14.665Z,99.99
2017-02-18T10:09:15.383Z,99.99
2017-02-18T10:10:16.105Z,99.99
2017-02-18T10:11:16.814Z,99.99
2017-02-18T10:12:17.524Z,99.99
2017-02-18T10:13:18.247Z,99.99
2017-02-18T10:14:18.992Z,99.99
2017-02-18T10:15:19.705Z,99.99
2017-02-18T10:16:20.523Z,99.99
2017-02-18T10:17:21.168Z,99.99
2017-02-18T10:18:21.878Z,99.99
2017-02-18T10:19:22.586Z,99.99
2017-02-18T10:20:23.304Z,99.99
2017-02-18T10:21:23.983Z,99.99
2017-02-18T10:22:24.681Z,99.99
2017-02-18T10:23:25.391Z,99.99
2017-02-18T10:24:26.075Z,99.99
2017-02-18T10:25:26.781Z,99.99
2017-02-18T10:26:27.475Z,99.99
2017-02-18T10:27:28.194Z,99.99
2017-02-18T10:28:28.897Z,99.99
2017-02-18T10:29:29.595Z,99.99
2017-02-18T10:30:30.281Z,99.99
2017-02-18T10:31:31.049Z,99.99
2017-02-18T10:32:31.765Z,99.99
2017-02-18T10:33:32.487Z,99.99
2017-02-18T10:34:33.205Z,99.99
2017-02-18T10:35:33.911Z,99.99
2017-02-18T10:36:34.620Z,99.99
2017-02-18T10:37:35.429Z,99.99
2017-02-18T10:38:36.152Z,99.99
2017-02-18T10:39:36.850Z,99.99
2017-02-18T10:40:37.571Z,99.99
2017-02-18T10:41:38.293Z,99.99
2017-02-18T10:42:39.062Z,99.99
2017-02-18T10:43:39.751Z,99.99
2017-02-18T10:44:40.456Z,99.99
2017-02-18T10:45:41.242Z,99.99
2017-02-18T10:46:41.910Z,99.99
2017-02-18T10:47:42.663Z,99.99
2017-02-18T10:48:43.430Z,99.99
2017-02-18T10:49:44.162Z,99.99
2017-02-18T10:50:44.875Z,99.73
2017-02-18T10:51:45.635Z,99.99
2017-02-18T10:52:46.343Z,99.99
2017-02-18T10:53:47.125Z,99.99
2017-02-18T10:54:47.840Z,99.99
2017-02-18T10:55:48.663Z,99.99
2017-02-18T10:56:49.372Z,99.99
2017-02-18T10:57:50.061Z,99.99
2017-02-18T10:58:50.784Z,99.99
2017-02-18T10:59:51.504Z,99.99
2017-02-18T11:00:52.273Z,99.99
2017-02-18T11:01:52.974Z,99.99
2017-02-18T11:02:53.692Z,99.99
2017-02-18T11:03:54.449Z,99.99
2017-02-18T11:04:55.171Z,99.99
2017-02-18T11:05:55.912Z,99.82
2017-02-18T11:06:56.650Z,99.99
2017-02-18T11:07:57.391Z,99.82
2017-02-18T11:08:58.101Z,99.91
2017-02-18T11:09:58.862Z,99.82
2017-02-18T11:10:59.581Z,99.99
2017-02-18T11:12:00.282Z,99.99
2017-02-18T11:13:00.991Z,99.82
2017-02-18T11:14:01.727Z,99.99
2017-02-18T11:15:02.452Z,99.91
2017-02-18T11:16:03.163Z,99.91
2017-02-18T11:17:03.861Z,99.99
2017-02-18T11:18:04.589Z,99.99
2017-02-18T11:19:05.295Z,99.99
2017-02-18T11:20:06.016Z,99.77
2017-02-18T11:21:06.737Z,99.58
2017-02-18T11:22:07.467Z,99.97
2017-02-18T11:23:08.163Z,99.73
2017-02-18T11:24:08.849Z,99.97
2017-02-18T11:25:09.562Z,99.91
2017-02-18T11:26:10.275Z,99.99
2017-02-18T11:27:11.003Z,99.82
2017-02-18T11:28:11.766Z,99.63
2017-02-18T11:29:12.529Z,99.73
2017-02-18T11:30:13.201Z,99.44
2017-02-18T11:31:13.911Z,98.97
2017-02-18T11:32:14.634Z,98.68
2017-02-18T11:33:15.364Z,98.68
2017-02-18T11:34:16.079Z,98.78
2017-02-18T11:35:16.762Z,98.78
2017-02-18T11:36:17.502Z,98.73
2017-02-18T11:37:18.228Z,99.11
2017-02-18T11:38:18.953Z,98.87
2017-02-18T11:39:19.653Z,98.54
2017-02-18T11:40:20.367Z,99.21
2017-02-18T11:41:21.085Z,98.64
2017-02-18T11:42:21.796Z,97.97
2017-02-18T11:43:22.518Z,98.11
2017-02-18T11:44:23.318Z,97.88
2017-02-18T11:45:24.106Z,98.45
2017-02-18T11:46:24.898Z,97.17
2017-02-18T11:47:25.625Z,97.41
2017-02-18T11:48:26.320Z,98.07
2017-02-18T11:49:27.102Z,98.07
2017-02-18T11:50:27.920Z,97.78
2017-02-18T11:51:28.668Z,97.69
2017-02-18T11:52:29.366Z,97.41
2017-02-18T11:53:30.074Z,97.31
2017-02-18T11:54:30.758Z,97.02
2017-02-18T11:55:31.452Z,97.31
2017-02-18T11:56:32.144Z,96.83
2017-02-18T11:57:32.915Z,96.55
2017-02-18T11:58:33.635Z,96.93
2017-02-18T11:59:34.329Z,96.64
2017-02-18T12:00:35.006Z,96.93
2017-02-18T12:01:35.704Z,96.45
2017-02-18T12:02:36.432Z,96.36
2017-02-18T12:03:37.166Z,95.98
2017-02-18T12:04:37.892Z,96.08
2017-02-18T12:05:38.591Z,95.6
2017-02-18T12:06:39.309Z,95.22
2017-02-18T12:07:40.016Z,95.03
2017-02-18T12:08:40.689Z,94.84
2017-02-18T12:09:41.390Z,95.12
2017-02-18T12:10:42.095Z,95.51
2017-02-18T12:11:42.792Z,95.6
2017-02-18T12:12:43.485Z,95.6
2017-02-18T12:13:44.192Z,95.41
2017-02-18T12:14:44.902Z,95.51
2017-02-18T12:15:45.627Z,95.41
2017-02-18T12:16:46.356Z,95.22
2017-02-18T12:17:47.053Z,95.79
2017-02-18T12:18:47.765Z,95.79
2017-02-18T12:19:48.471Z,95.7
2017-02-18T12:20:49.183Z,95.98
2017-02-18T12:21:49.969Z,95.98
2017-02-18T12:22:50.768Z,96.08
2017-02-18T12:23:51.504Z,96.08
2017-02-18T12:24:52.251Z,96.26
2017-02-18T12:25:53.010Z,96.45
2017-02-18T12:26:53.730Z,96.36
2017-02-18T12:27:54.484Z,96.12
2017-02-18T12:28:55.236Z,96.36
2017-02-18T12:29:55.978Z,96.22
2017-02-18T12:30:56.717Z,95.79
2017-02-18T12:31:57.480Z,96.36
2017-02-18T12:32:58.178Z,95.7
2017-02-18T12:33:58.924Z,95.03
2017-02-18T12:34:59.666Z,95.03
2017-02-18T12:36:00.474Z,95.79
2017-02-18T12:37:01.223Z,95.03
2017-02-18T12:38:02.002Z,94.84
2017-02-18T12:39:02.716Z,95.03
2017-02-18T12:40:03.418Z,95.22
2017-02-18T12:41:04.171Z,95.03
2017-02-18T12:42:04.877Z,95.12
2017-02-18T12:43:05.595Z,95.41
2017-02-18T12:44:06.296Z,95.41
2017-02-18T12:45:07.029Z,95.31
2017-02-18T12:46:07.731Z,95.6
2017-02-18T12:47:08.480Z,95.31
2017-02-18T12:48:09.174Z,95.22
2017-02-18T12:49:09.866Z,95.31
2017-02-18T12:50:10.572Z,95.41
2017-02-18T12:51:11.305Z,96.17
2017-02-18T12:52:12.113Z,95.74
2017-02-18T12:53:12.839Z,95.6
2017-02-18T12:54:13.541Z,95.79
2017-02-18T12:55:14.310Z,96.17
2017-02-18T12:56:15.009Z,96.17
2017-02-18T12:57:15.701Z,96.26
2017-02-18T12:58:16.450Z,95.84
2017-02-18T12:59:17.198Z,95.74
2017-02-18T13:00:17.920Z,96.31
2017-02-18T13:01:18.612Z,96.31